Flight Track Log - Related Links

Times and Time Zones

All times are in EDT time to prevent confusion due to time zone crossing. See the VP-BLX flight status page for this flight to view local times or setup timezone preferences in your user account.

Time Position Orientation Groundspeed Altitude Reporting Facility
EDT Latitude Longitude Course Direction KTS MPH feet Rate Location/Type
Tue 08:19:00 PM 56.0888 36.7112 293° West  Level Estimated
Tue 08:20:00 PM 56.1394 36.5031 294° West  Level FlightAware Approximate
Tue 08:21:00 PM 56.1895 36.2944 293° West  Level FlightAware Approximate
Tue 08:22:00 PM 56.2393 36.0852 293° West  Level FlightAware Approximate
Tue 08:23:00 PM 56.2888 35.8755 293° West  Level FlightAware Approximate
Tue 08:24:00 PM 56.3379 35.6652 293° West  Level FlightAware Approximate
Tue 08:25:00 PM 56.3866 35.4544 293° West  Level FlightAware Approximate
Tue 08:26:00 PM 56.4350 35.2430 293° West  Level FlightAware Approximate
Tue 08:27:00 PM 56.4831 35.0311 292° West  Level FlightAware Approximate
Tue 08:28:00 PM 56.5307 34.8187 292° West  Level FlightAware Approximate
Tue 08:29:00 PM 56.5780 34.6057 292° West  Level FlightAware Approximate
Tue 08:30:00 PM 56.6250 34.3922 292° West  Level FlightAware Approximate
Tue 08:31:00 PM 56.6715 34.1782 292° West  Level FlightAware Approximate
Tue 08:32:00 PM 56.7177 33.9636 292° West  Level FlightAware Approximate
Tue 08:33:00 PM 56.7635 33.7486 291° West  Level FlightAware Approximate
Tue 08:34:00 PM 56.8090 33.5330 291° West  Level FlightAware Approximate
Tue 08:35:00 PM 56.8529 33.3120 289° West  Level FlightAware Approximate
Tue 08:36:00 PM 56.8934 33.0927 289° West  Level FlightAware Approximate
Tue 08:37:00 PM 56.9336 32.8729 289° West  Level FlightAware Approximate
Tue 08:38:00 PM 56.9734 32.6526 288° West  Level FlightAware Approximate
Tue 08:39:00 PM 57.0128 32.4318 288° West  Level FlightAware Approximate
Tue 08:40:00 PM 57.0518 32.2106 288° West  Level FlightAware Approximate
Tue 08:41:00 PM 57.0904 31.9889 288° West  Level FlightAware Approximate
Tue 08:42:00 PM 57.1286 31.7668 288° West  Level FlightAware Approximate
Tue 08:42:43 PM 56.3952 32.9787 279° West 461 531 34,000  Level FlightAware ADS-B
Tue 08:45:43 PM 56.5206 31.5005 278° West 463 533 34,000  Level FlightAware ADS-B
Tue 08:46:43 PM 56.5356 31.3071 278° West 462 532 34,000  Level FlightAware ADS-B
Tue 08:47:44 PM 56.5558 31.0417 278° West 461 531 34,000  Level FlightAware ADS-B
Tue 08:48:44 PM 56.5730 30.8117 278° West 462 532 34,000  Level FlightAware ADS-B
Tue 08:49:43 PM 56.5896 30.5807 277° West 465 535 34,000  Level FlightAware ADS-B
Tue 08:50:44 PM 56.6058 30.3490 277° West 467 537 34,000  Level FlightAware ADS-B
Tue 08:51:42 PM 56.6217 30.1189 277° West 469 540 34,000  Level FlightAware ADS-B
Tue 08:52:43 PM 56.6375 29.8838 277° West 468 539 34,000  Level FlightAware ADS-B
Tue 08:53:43 PM 56.6526 29.6495 277° West 468 539 34,000  Level FlightAware ADS-B
Tue 08:54:43 PM 56.6669 29.4210 276° West 468 539 34,000  Level FlightAware ADS-B
Tue 08:55:43 PM 56.6814 29.1827 276° West 468 539 34,000  Level FlightAware ADS-B
Tue 08:56:43 PM 56.6953 28.9485 276° West 470 541 34,000  Level FlightAware ADS-B
Tue 08:57:43 PM 56.7068 28.7477 276° West 471 542 34,000  Level FlightAware ADS-B
Tue 08:58:43 PM 56.7217 28.4800 276° West 472 543 34,000  Level FlightAware ADS-B
Tue 08:59:43 PM 56.7346 28.2400 276° West 473 544 34,000  Level FlightAware ADS-B
Tue 09:00:43 PM 56.7468 28.0030 275° West 473 544 34,000  Level FlightAware ADS-B
Tue 09:01:43 PM 56.7589 27.7655 276° West 472 543 34,000  Level FlightAware ADS-B
Tue 09:02:43 PM 56.7618 27.5266 270° West 474 545 34,000  Level FlightAware ADS-B
Tue 09:03:43 PM 56.7628 27.2919 271° West 476 548 34,000  Level FlightAware ADS-B
Tue 09:04:43 PM 56.7642 27.0502 271° West 477 549 34,000  Level FlightAware ADS-B
Tue 09:05:43 PM 56.7650 26.8087 270° West 476 548 34,000  Level FlightAware ADS-B
Tue 09:06:44 PM 56.7653 26.5680 270° West 474 545 34,000  Level FlightAware ADS-B
Tue 09:07:43 PM 56.7652 26.3334 270° West 472 543 34,000  Level FlightAware ADS-B
Tue 09:08:44 PM 56.7647 26.0925 270° West 472 543 34,000  Level FlightAware ADS-B
Tue 09:09:42 PM 56.7636 25.8631 270° West 473 544 34,000  Level FlightAware ADS-B
Tue 09:10:43 PM 56.7622 25.6164 269° West 475 547 34,000  Level FlightAware ADS-B
Tue 09:11:43 PM 56.7604 25.3804 269° West 475 547 34,000  Level FlightAware ADS-B
Tue 09:12:44 PM 56.7579 25.1387 269° West 476 548 34,000  Level FlightAware ADS-B
Tue 09:13:44 PM 56.7551 24.8960 269° West 478 550 34,000  Level FlightAware ADS-B
Tue 09:14:43 PM 56.7518 24.6566 268° West 480 552 34,000  Level FlightAware ADS-B
Tue 09:15:44 PM 56.7481 24.4168 268° West 482 555 34,000  Level FlightAware ADS-B
Tue 09:16:43 PM 56.7438 24.1716 268° West 480 552 34,000  Level FlightAware ADS-B
Tue 09:17:43 PM 56.7391 23.9319 268° West 480 552 34,000  Level FlightAware ADS-B
Tue 09:18:43 PM 56.7338 23.6877 268° West 481 554 34,000  Level FlightAware ADS-B
Tue 09:19:43 PM 56.7281 23.4488 267° West 480 552 34,000  Level FlightAware ADS-B
Tue 09:20:43 PM 56.7220 23.2059 267° West 478 550 34,000  Level FlightAware ADS-B
Tue 09:21:44 PM 56.7153 22.9639 267° West 480 552 34,000  Level FlightAware ADS-B
Tue 09:22:43 PM 56.7083 22.7244 267° West 482 555 34,000  Level FlightAware ADS-B
Tue 09:23:43 PM 56.7010 22.4885 267° West 482 555 34,000  Level FlightAware ADS-B
Tue 09:24:44 PM 56.6928 22.2385 267° West 484 557 34,000  Level FlightAware ADS-B
Tue 09:25:42 PM 56.6842 21.9970 266° West 485 558 34,000  Level FlightAware ADS-B
Tue 09:26:43 PM 56.6751 21.7533 266° West 484 557 34,000  Level FlightAware ADS-B
Tue 09:27:44 PM 56.6657 21.5128 266° West 485 558 34,000  Level FlightAware ADS-B
Tue 09:28:44 PM 56.6556 21.2658 266° West 488 562 34,000  Level FlightAware ADS-B
Tue 09:29:44 PM 56.6451 21.0197 265° West 489 563 34,000  Level FlightAware ADS-B
Tue 09:30:42 PM 56.6344 20.7826 265° West 488 562 34,000  Level FlightAware ADS-B
Tue 09:31:27 PM 56.6260 20.6019 265° West 489 563 34,000  Level FlightAware ADS-B
Tue 09:45:38 PM 56.5949 17.2045 272° West 449 517 34,000  Level FlightAware ADS-B
Tue 09:46:08 PM 56.5971 17.0930 272° West 445 512 34,000  Level FlightAware ADS-B
Tue 09:46:39 PM 56.5994 16.9769 272° West 446 513 34,000  Level FlightAware ADS-B
Tue 09:47:09 PM 56.6015 16.8679 272° West 447 514 34,000  Level FlightAware ADS-B
Tue 09:47:39 PM 56.6034 16.7619 272° West 446 513 34,000  Level FlightAware ADS-B
Tue 09:48:12 PM 56.6057 16.6306 272° West 446 513 34,000  Level FlightAware ADS-B
Tue 09:48:43 PM 56.6074 16.5242 272° West 445 512 34,000  Level FlightAware ADS-B
Tue 09:49:14 PM 56.6092 16.4002 272° West 446 513 34,000  Level FlightAware ADS-B
Tue 09:49:44 PM 56.6109 16.2882 272° West 450 518 34,000  Level FlightAware ADS-B
Tue 09:50:14 PM 56.6123 16.1767 271° West 450 518 34,000  Level FlightAware ADS-B
Tue 09:50:49 PM 56.6139 16.0459 271° West 450 518 34,000  Level FlightAware ADS-B
Tue 09:51:19 PM 56.6152 15.9335 271° West 451 519 34,000  Level FlightAware ADS-B
Tue 09:51:49 PM 56.6164 15.8189 271° West 453 521 34,000  Level FlightAware ADS-B
Tue 09:52:19 PM 56.6176 15.7040 271° West 454 522 34,000  Level FlightAware ADS-B
Tue 09:52:49 PM 56.6185 15.5923 271° West 454 522 34,000  Level FlightAware ADS-B
Tue 09:53:23 PM 56.6195 15.4634 271° West 454 522 34,000  Level FlightAware ADS-B
Tue 09:53:53 PM 56.6203 15.3477 271° West 464 534 34,000  Level FlightAware ADS-B
Tue 09:54:24 PM 56.6211 15.2240 271° West 472 543 34,000  Level FlightAware ADS-B
Tue 09:54:56 PM 56.6215 15.0983 270° West 472 543 34,000  Level FlightAware ADS-B
Tue 09:55:26 PM 56.6219 14.9755 270° West 471 542 34,000 295 Level FlightAware ADS-B
Tue 09:55:57 PM 56.6222 14.8630 270° West 469 540 34,300 581 Climbing FlightAware ADS-B
Tue 09:56:28 PM 56.6225 14.7405 270° West 472 543 34,600 537 Climbing FlightAware ADS-B
Tue 09:57:04 PM 56.6227 14.6009 270° West 469 540 34,900 545 Climbing FlightAware ADS-B
Tue 09:57:34 PM 56.6226 14.4730 270° West 467 537 35,200 600 Climbing FlightAware ADS-B
Tue 09:58:04 PM 56.6224 14.3596 270° West 462 532 35,500 600 Climbing FlightAware ADS-B
Tue 09:58:34 PM 56.6222 14.2486 270° West 460 529 35,800 469 Climbing FlightAware ADS-B
Tue 09:59:08 PM 56.6217 14.1104 270° West 461 531 36,000 185 Climbing FlightAware ADS-B
Tue 09:59:39 PM 56.6213 13.9933 270° West 462 532 36,000  Level FlightAware ADS-B
Tue 10:00:13 PM 56.6206 13.8599 270° West 462 532 36,000  Level FlightAware ADS-B
Tue 10:00:44 PM 56.6198 13.7437 269° West 461 531 36,000  Level FlightAware ADS-B
Tue 10:01:14 PM 56.6190 13.6260 269° West 460 529 36,000  Level FlightAware ADS-B
Tue 10:01:44 PM 56.6180 13.5152 269° West 460 529 36,000  Level FlightAware ADS-B
Tue 10:01:59 PM 56.6174 13.4413 270° West 460 529 36,000  Level FlightAware ADS-B
Tue 10:02:29 PM 56.6164 13.3373 269° West 459 528 36,000  Level FlightAware ADS-B
Tue 10:02:32 PM 56.6162 13.3135 270° West 459 528 36,000  Level FlightAware ADS-B
Tue 10:02:48 PM 56.6155 13.2522 270° West 458 527 36,000  Level FlightAware ADS-B
Tue 10:03:19 PM 56.6143 13.1493 269° West 457 526 36,000  Level FlightAware ADS-B
Tue 10:03:33 PM 56.6135 13.0795 270° West 456 525 36,000  Level FlightAware ADS-B
Tue 10:03:46 PM 56.6129 13.0290 270° West 456 525 36,000  Level FlightAware ADS-B
Tue 10:04:03 PM 56.6120 12.9664 270° West 456 525 36,000  Level FlightAware ADS-B
Tue 10:04:18 PM 56.6113 12.9071 270° West 456 525 36,000  Level FlightAware ADS-B
Tue 10:04:33 PM 56.6105 12.8501 270° West 456 525 36,000  Level FlightAware ADS-B
Tue 10:04:48 PM 56.6098 12.7947 270° West 456 525 36,000  Level FlightAware ADS-B
Tue 10:05:03 PM 56.6090 12.7423 270° West 457 526 36,000  Level FlightAware ADS-B
Tue 10:05:18 PM 56.6081 12.6813 270° West 458 527 36,000  Level FlightAware ADS-B
Tue 10:05:48 PM 56.6066 12.5781 268° West 460 529 36,000  Level FlightAware ADS-B
Tue 10:06:03 PM 56.6054 12.5066 269° West 461 531 36,000  Level FlightAware ADS-B
Tue 10:06:33 PM 56.6036 12.4006 268° West 461 531 36,000  Level FlightAware ADS-B
Tue 10:07:04 PM 56.6015 12.2840 268° West 460 529 36,000  Level FlightAware ADS-B
Tue 10:07:39 PM 56.5990 12.1541 268° West 460 529 36,000  Level FlightAware ADS-B
Tue 10:08:09 PM 56.5967 12.0404 268° West 459 528 36,000  Level FlightAware ADS-B
Tue 10:08:43 PM 56.5938 11.9037 268° West 459 528 36,000  Level FlightAware ADS-B
Tue 10:09:14 PM 56.5913 11.7879 268° West 457 526 36,000  Level FlightAware ADS-B
Tue 10:09:44 PM 56.5887 11.6764 268° West 456 525 36,000  Level FlightAware ADS-B
Tue 10:10:20 PM 56.5853 11.5336 268° West 455 524 36,000  Level FlightAware ADS-B
Tue 10:10:50 PM 56.5825 11.4221 267° West 456 525 36,000  Level FlightAware ADS-B
Tue 10:11:20 PM 56.5794 11.3055 267° West 457 526 36,000  Level FlightAware ADS-B
Tue 10:11:55 PM 56.5756 11.1769 266° West 458 527 36,000  Level FlightAware ADS-B
Tue 10:12:30 PM 56.5696 11.0408 265° West 461 531 36,000  Level FlightAware ADS-B
Tue 10:13:00 PM 56.5642 10.9221 265° West 461 531 36,000  Level FlightAware ADS-B
Tue 10:13:34 PM 56.5583 10.7920 265° West 462 532 36,000  Level FlightAware ADS-B
Tue 10:14:05 PM 56.5531 10.6765 265° West 462 532 36,000  Level FlightAware ADS-B
Tue 10:14:39 PM 56.5471 10.5460 265° West 463 533 36,000  Level FlightAware ADS-B
Tue 10:15:10 PM 56.5413 10.4239 265° West 462 532 36,000  Level FlightAware ADS-B
Tue 10:15:40 PM 56.5357 10.3099 265° West 462 532 36,000  Level FlightAware ADS-B
Tue 10:16:10 PM 56.5303 10.1995 265° West 461 531 36,000  Level FlightAware ADS-B
Tue 10:16:40 PM 56.5241 10.0770 265° West 461 531 36,000  Level FlightAware ADS-B
Tue 10:17:10 PM 56.5184 9.9653 265° West 460 529 36,000  Level FlightAware ADS-B
Tue 10:17:40 PM 56.5123 9.8490 265° West 459 528 36,000  Level FlightAware ADS-B
Tue 10:18:10 PM 56.5072 9.7515 265° West 458 527 36,000  Level FlightAware ADS-B
Tue 10:18:44 PM 56.4993 9.6056 264° West 457 526 36,000  Level FlightAware ADS-B
Tue 10:19:53 PM 56.4850 9.3473 264° West 455 524 36,000  Level FlightAware ADS-B
Tue 10:21:38 PM 56.4617 8.9474 264° West 455 524 36,000  Level FlightAware ADS-B
Tue 10:22:08 PM 56.4550 8.8380 264° West 455 524 36,000  Level FlightAware ADS-B
Tue 10:22:39 PM 56.4477 8.7177 264° West 453 521 36,000  Level FlightAware ADS-B
Tue 10:24:57 PM 56.4148 8.2047 263° West 451 519 36,000  Level FlightAware ADS-B
Tue 10:36:22 PM 56.2218 5.6650 268° West 460 529 36,000  Level FlightAware UK
Tue 10:36:52 PM 56.2111 5.5585 260° West 417 480 36,000  Level FlightAware UK
Tue 10:37:22 PM 56.2010 5.4498 261° West 417 480 36,000  Level FlightAware UK
Tue 10:37:58 PM 56.1897 5.3183 261° West 434 499 36,000  Level FlightAware UK
Tue 10:38:28 PM 56.1796 5.2098 261° West 444 511 36,000  Level FlightAware UK
Tue 10:38:58 PM 56.1695 5.1008 261° West 417 480 36,000  Level FlightAware UK
Tue 10:39:33 PM 56.1573 4.9707 260° West 446 513 36,000  Level FlightAware UK
Tue 10:40:04 PM 56.1470 4.8603 261° West 448 516 36,000  Level FlightAware UK
Tue 10:40:34 PM 56.1367 4.7505 260° West 448 516 36,000  Level FlightAware UK
Tue 10:41:04 PM 56.1265 4.6408 261° West 448 516 36,000  Level FlightAware UK
Tue 10:41:34 PM 56.1157 4.5316 260° West 448 516 36,000  Level FlightAware UK
Tue 10:42:04 PM 56.1052 4.4219 260° West 446 513 36,000  Level FlightAware UK
Tue 10:42:39 PM 56.0926 4.2915 260° West 446 513 36,000  Level FlightAware UK
Tue 10:43:15 PM 56.0793 4.1624 260° West 446 513 36,000  Level FlightAware UK
Tue 10:43:45 PM 56.0682 4.0533 260° West 444 511 36,000  Level FlightAware UK
Tue 10:44:21 PM 56.0550 3.9242 260° West 444 511 36,000  Level FlightAware UK
Tue 10:44:57 PM 56.0417 3.7944 260° West 442 509 36,000  Level FlightAware UK
Tue 10:45:27 PM 56.0305 3.6869 259° West 444 511 36,000  Level FlightAware UK
Tue 10:45:57 PM 56.0193 3.5790 260° West 444 511 36,000  Level FlightAware UK
Tue 10:46:33 PM 56.0075 3.4497 261° West 442 509 36,000  Level FlightAware UK
Tue 10:47:03 PM 56.0034 3.3405 266° West 440 506 36,000  Level FlightAware UK
Tue 10:47:33 PM 55.9984 3.2326 265° West 440 506 36,000  Level FlightAware UK
Tue 10:48:09 PM 55.9913 3.1048 264° West 440 506 36,000  Level FlightAware UK
Tue 10:48:39 PM 55.9848 2.9946 264° West 440 506 36,000  Level FlightAware UK
Tue 10:49:09 PM 55.9784 2.8865 264° West 440 506 36,000  Level FlightAware UK
Tue 10:49:45 PM 55.9704 2.7577 264° West 438 504 36,000  Level FlightAware UK
Tue 10:50:00 PM 55.9672 2.7068 264° West 440 506 36,000  Level FlightAware ADS-B
Tue 10:50:50 PM 55.9555 2.5231 264° West 438 504 36,000  Level FlightAware UK
Tue 10:50:50 PM 55.9559 2.5273 263° West 438 504 36,000  Level FlightAware ADS-B
Tue 10:51:21 PM 55.9485 2.4151 263° West 436 502 36,000  Level FlightAware UK
Tue 10:51:52 PM 55.9416 2.3063 263° West 437 503 36,000  Level FlightAware ADS-B (EGNT / NCL)
Tue 10:51:56 PM 55.9405 2.2873 264° West 436 502 36,000  Level FlightAware UK
Tue 10:52:27 PM 55.9348 2.2023 263° West 436 502 36,000  Level FlightAware ADS-B (EGNT / NCL)
Tue 10:53:02 PM 55.9248 2.0535 263° West 434 499 36,000  Level FlightAware UK
Tue 10:53:08 PM 55.9313 2.1500 263° West 435 501 36,000  Level FlightAware ADS-B (EGNT / NCL)
Tue 10:53:38 PM 55.9161 1.9265 263° West 434 499 36,000  Level FlightAware UK
Tue 10:54:01 PM 55.9108 1.8484 263° West 436 502 36,000  Level FlightAware ADS-B (EGNT / NCL)
Tue 10:54:38 PM 55.9015 1.7127 263° West 436 502 36,000  Level FlightAware UK
Tue 10:55:03 PM 55.8954 1.6278 264° West 436 502 36,000  Level FlightAware ADS-B
Tue 10:55:44 PM 55.8846 1.4791 264° West 436 502 36,000  Level FlightAware UK
Tue 10:55:45 PM 55.8845 1.4763 263° West 436 502 36,000  Level FlightAware ADS-B (EGNT / NCL)
Tue 10:56:02 PM 55.8803 1.4182 263° West 435 501 36,000  Level FlightAware ADS-B (EGNT / NCL)
Tue 10:56:42 PM 55.8702 1.2810 262° West 434 499 36,000  Level FlightAware ADS-B (EGNT / NCL)
Tue 10:57:20 PM 55.8597 1.1403 262° West 432 497 36,000  Level FlightAware UK
Tue 10:57:55 PM 55.8503 1.0153 262° West 432 497 36,000  Level FlightAware UK
Tue 10:58:00 PM 55.8510 1.0249 262° West 432 497 36,000  Level FlightAware ADS-B (EGNT / NCL)
Tue 10:58:42 PM 55.8389 0.8676 262° West 433 498 36,000  Level FlightAware ADS-B (EGNT / NCL)
Tue 10:59:21 PM 55.8285 0.7339 262° West 434 499 36,000  Level FlightAware ADS-B (EGNT / NCL)
Tue 11:00:05 PM 55.8151 0.5653 263° West 433 498 36,000  Level FlightAware ADS-B
Tue 11:00:38 PM 55.8055 0.4447 263° West 434 499 36,000  Level FlightAware UK
Tue 11:00:43 PM 55.8039 0.4266 262° West 434 499 36,000  Level FlightAware ADS-B (EGNT / NCL)
Tue 11:01:14 PM 55.7951 0.3190 262° West 432 497 36,000  Level FlightAware UK
Tue 11:01:17 PM 55.7943 0.3092 262° West 433 498 36,000  Level FlightAware ADS-B (EGNT / NCL)
Tue 11:01:54 PM 55.7878 0.2291 262° West 431 496 36,000  Level FlightAware ADS-B (EGNT / NCL)
Tue 11:02:42 PM 55.7697 0.0130 262° West 431 496 36,000  Level FlightAware ADS-B (EGNT / NCL)
Tue 11:03:20 PM 55.7583 -0.1200 261° West 431 496 36,000  Level FlightAware ADS-B (EGNT / NCL)
Tue 11:04:00 PM 55.7466 -0.2563 261° West 432 497 36,000  Level FlightAware ADS-B (EGNT / NCL)
Tue 11:04:01 PM 55.7457 -0.2657 261° West 432 497 36,000  Level FlightAware UK
Tue 11:04:32 PM 55.7365 -0.3711 261° West 430 495 36,000  Level FlightAware UK
Tue 11:04:32 PM 55.7368 -0.3680 261° West 431 496 36,000  Level FlightAware ADS-B (EGNT / NCL)
Tue 11:05:03 PM 55.7282 -0.4645 261° West 431 496 36,000  Level FlightAware ADS-B (EGNT / NCL)
Tue 11:05:34 PM 55.7173 -0.5878 261° West 430 495 36,000  Level FlightAware ADS-B
Tue 11:06:05 PM 55.7076 -0.6951 261° West 430 495 36,000  Level FlightAware ADS-B
Tue 11:06:36 PM 55.6977 -0.8034 261° West 432 497 36,000  Level FlightAware ADS-B
Tue 11:07:06 PM 55.6882 -0.9065 261° West 431 496 36,000  Level FlightAware ADS-B (EGPH / EDI)
Tue 11:07:46 PM 55.6759 -1.0389 261° West 431 496 36,000  Level FlightAware ADS-B
Tue 11:08:22 PM 55.6636 -1.1691 260° West 431 496 36,000  Level FlightAware ADS-B (EGNT / NCL)
Tue 11:08:52 PM 55.6545 -1.2655 260° West 432 497 36,000  Level FlightAware ADS-B (EGNT / NCL)
Tue 11:09:05 PM 55.6493 -1.3189 261° West 430 495 36,000  Level FlightAware ADS-B
Tue 11:09:35 PM 55.6395 -1.4208 260° West 430 495 36,000  Level FlightAware ADS-B
Tue 11:10:05 PM 55.6288 -1.5300 261° West 429 494 36,000  Level FlightAware ADS-B
Tue 11:10:35 PM 55.6189 -1.6311 260° West 431 496 36,000  Level FlightAware ADS-B
Tue 11:11:05 PM 55.6084 -1.7366 261° West 429 494 36,000  Level FlightAware ADS-B
Tue 11:11:39 PM 55.5967 -1.8533 260° West 430 495 36,000  Level FlightAware ADS-B
Tue 11:12:13 PM 55.5849 -1.9699 260° West 426 490 36,000  Level FlightAware UK
Tue 11:12:14 PM 55.5848 -1.9706 260° West 427 491 36,000  Level FlightAware ADS-B (EGPH / EDI)
Tue 11:12:44 PM 55.5743 -2.0741 260° West 426 490 36,000  Level FlightAware ADS-B (EGNT / NCL)
Tue 11:13:14 PM 55.5638 -2.1760 260° West 426 490 36,000  Level FlightAware ADS-B (EGNT / NCL)
Tue 11:13:44 PM 55.5530 -2.2795 260° West 428 493 36,000  Level FlightAware ADS-B (EGNT / NCL)
Tue 11:14:09 PM 55.5444 -2.3621 261° West 427 491 36,000  Level FlightAware ADS-B
Tue 11:14:43 PM 55.5318 -2.4820 261° West 426 490 36,000  Level FlightAware UK
Tue 11:14:45 PM 55.5329 -2.4714 259° West 427 491 36,000  Level FlightAware ADS-B
Tue 11:15:18 PM 55.5187 -2.6036 259° West 426 490 36,000  Level FlightAware UK
Tue 11:15:18 PM 55.5191 -2.6003 259° West 426 490 36,000  Level FlightAware ADS-B
Tue 11:15:48 PM 55.5076 -2.7058 259° West 424 488 36,000  Level FlightAware UK
Tue 11:15:50 PM 55.5081 -2.7021 259° West 426 490 36,000  Level FlightAware ADS-B
Tue 11:16:20 PM 55.4963 -2.8114 259° West 427 491 36,000  Level FlightAware ADS-B
Tue 11:16:52 PM 55.4846 -2.9181 259° West 427 491 36,000  Level FlightAware ADS-B
Tue 11:17:22 PM 55.4728 -3.0247 259° West 427 491 36,000  Level FlightAware ADS-B
Tue 11:17:57 PM 55.4603 -3.1372 259° West 426 490 36,000  Level FlightAware ADS-B
Tue 11:18:30 PM 55.4475 -3.2510 259° West 425 489 36,000  Level FlightAware ADS-B
Tue 11:19:00 PM 55.4363 -3.3500 259° West 425 489 36,000  Level FlightAware ADS-B
Tue 11:19:32 PM 55.4234 -3.4625 259° West 425 489 36,000  Level FlightAware ADS-B
Tue 11:20:06 PM 55.4101 -3.5779 259° West 427 491 36,000  Level FlightAware ADS-B (EGPH / EDI)
Tue 11:20:26 PM 55.4023 -3.6450 258° West 427 491 36,000  Level FlightAware ADS-B
Tue 11:21:05 PM 55.3870 -3.7756 258° West 426 490 36,000  Level FlightAware ADS-B
Tue 11:21:40 PM 55.3728 -3.8959 258° West 419 482 36,000  Level FlightAware ADS-B
Tue 11:22:10 PM 55.3615 -3.9914 258° West 413 475 36,000  Level FlightAware ADS-B
Tue 11:22:42 PM 55.3487 -4.0979 258° West 412 474 36,000  Level FlightAware ADS-B
Tue 11:23:13 PM 55.3366 -4.1974 258° West 411 473 36,000  Level FlightAware ADS-B (EGPH / EDI)
Tue 11:23:44 PM 55.3245 -4.2971 258° West 409 471 36,000  Level FlightAware ADS-B
Tue 11:24:14 PM 55.3122 -4.3973 258° West 409 471 36,000  Level FlightAware ADS-B
Tue 11:24:37 PM 55.3030 -4.4717 259° West 408 470 36,000  Level FlightAware ADS-B (KFUL)
Tue 11:24:58 PM 55.2948 -4.5379 259° West 407 468 36,000  Level FlightAware ADS-B (KFUL)
Tue 11:25:18 PM 55.2864 -4.6046 259° West 407 468 36,000  Level FlightAware ADS-B (KFUL)
Tue 11:25:22 PM 55.2847 -4.6185 259° West 406 467 36,000  Level FlightAware ADS-B
Tue 11:25:38 PM 55.2785 -4.6684 259° West 405 466 36,000  Level FlightAware ADS-B (KFUL)
Tue 11:25:43 PM 55.2764 -4.6854 259° West 404 465 36,000  Level FlightAware ADS-B
Tue 11:25:56 PM 55.2712 -4.7264 259° West 403 464 36,000  Level FlightAware ADS-B (KFUL)
Tue 11:26:03 PM 55.2685 -4.7476 259° West 403 464 36,000  Level FlightAware ADS-B
Tue 11:26:17 PM 55.2627 -4.7938 259° West 403 464 36,000  Level FlightAware ADS-B (KFUL)
Tue 11:26:23 PM 55.2605 -4.8108 259° West 403 464 36,000  Level FlightAware ADS-B
Tue 11:26:57 PM 55.2467 -4.9195 259° West 403 464 36,000  Level FlightAware ADS-B (KFUL)
Tue 11:27:27 PM 55.2346 -5.0142 257° West 406 467 36,000  Level FlightAware ADS-B
Tue 11:27:39 PM 55.2296 -5.0525 257° West 406 467 36,000  Level FlightAware ADS-B
Tue 11:28:03 PM 55.2193 -5.1323 258° West 405 466 36,000  Level FlightAware ADS-B
Tue 11:28:18 PM 55.2133 -5.1781 258° West 405 466 36,000  Level FlightAware ADS-B (KFUL)
Tue 11:28:43 PM 55.2029 -5.2587 258° West 406 467 36,000  Level FlightAware ADS-B
Tue 11:28:57 PM 55.1967 -5.3057 258° West 405 466 36,000  Level FlightAware ADS-B (KFUL)
Tue 11:29:03 PM 55.1944 -5.3227 258° West 405 466 36,000  Level FlightAware ADS-B
Tue 11:29:17 PM 55.1887 -5.3662 258° West 404 465 36,000  Level FlightAware ADS-B (KFUL)
Tue 11:29:23 PM 55.1859 -5.3880 258° West 404 465 36,000  Level FlightAware ADS-B
Tue 11:29:37 PM 55.1801 -5.4314 258° West 405 466 36,000  Level FlightAware ADS-B (KFUL)
Tue 11:30:04 PM 55.1689 -5.5160 258° West 406 467 36,000  Level FlightAware ADS-B
Tue 11:30:35 PM 55.1551 -5.6189 258° West 408 470 36,000  Level FlightAware UK
Tue 11:30:38 PM 55.1548 -5.6214 258° West 406 467 36,000  Level FlightAware ADS-B (KFUL)
Tue 11:30:45 PM 55.1511 -5.6485 257° West 409 471 36,000  Level FlightAware ADS-B (EGAA / BFS)
Tue 11:30:55 PM 55.1468 -5.6806 257° West 409 471 36,000  Level FlightAware ADS-B
Tue 11:31:01 PM 55.1440 -5.7011 257° West 409 471 36,000  Level FlightAware ADS-B (EGAA / BFS)
Tue 11:31:31 PM 55.1314 -5.7941 257° West 411 473 36,000  Level FlightAware ADS-B
Tue 11:32:03 PM 55.1173 -5.8982 257° West 414 476 36,000  Level FlightAware ADS-B (EGPH / EDI)
Tue 11:32:33 PM 55.1039 -5.9961 257° West 417 480 36,000  Level FlightAware ADS-B
Tue 11:32:56 PM 55.0936 -6.0712 257° West 417 480 36,000  Level FlightAware ADS-B (KFUL)
Tue 11:33:31 PM 55.0781 -6.1822 256° West 412 474 36,000  Level FlightAware ADS-B (EGPH / EDI)
Tue 11:34:04 PM 55.0631 -6.2903 256° West 406 467 36,000  Level FlightAware ADS-B
Tue 11:34:39 PM 55.0486 -6.3928 256° West 405 466 36,000  Level FlightAware ADS-B
Tue 11:35:09 PM 55.0342 -6.4939 256° West 405 466 36,000  Level FlightAware ADS-B
Tue 11:35:44 PM 55.0181 -6.6072 256° West 404 465 36,000  Level FlightAware ADS-B
Tue 11:36:16 PM 55.0039 -6.7054 256° West 404 465 36,000  Level FlightAware ADS-B (EGPH / EDI)
Tue 11:36:47 PM 54.9895 -6.8062 256° West 402 463 36,000  Level FlightAware UK
Tue 11:36:49 PM 54.9888 -6.8106 256° West 403 464 36,000  Level FlightAware ADS-B
Tue 11:37:23 PM 54.9735 -6.9156 256° West 402 463 36,000  Level FlightAware ADS-B
Tue 11:37:37 PM 54.9666 -6.9600 253° West 402 463 36,000  Level FlightAware ADS-B
Tue 11:38:17 PM 54.9383 -7.0802 253° West 396 456 36,000  Level FlightAware UK
Tue 11:38:18 PM 54.9383 -7.0795 243° Southwest 396 456 36,000  Level FlightAware ADS-B (EGPH / EDI)
Tue 11:38:25 PM 54.9330 -7.0968 241° Southwest 396 456 36,000  Level FlightAware ADS-B
Tue 11:38:57 PM 54.9031 -7.1911 242° Southwest 396 456 36,000  Level FlightAware ADS-B (EGPH / EDI)
Tue 11:39:04 PM 54.8978 -7.2084 242° Southwest 396 456 36,000  Level FlightAware ADS-B
Tue 11:39:36 PM 54.8703 -7.2969 241° Southwest 395 455 36,000  Level FlightAware ADS-B (EGPH / EDI)
Tue 11:40:18 PM 54.8330 -7.4145 241° Southwest 394 453 36,000  Level FlightAware ADS-B
Tue 11:40:53 PM 54.8019 -7.5125 241° Southwest 394 453 36,000  Level FlightAware UK
Tue 11:40:57 PM 54.8016 -7.5129 241° Southwest 394 453 36,000  Level FlightAware ADS-B (EGPH / EDI)
Tue 11:41:38 PM 54.7623 -7.6353 241° Southwest 394 453 36,000  Level FlightAware ADS-B
Tue 11:42:18 PM 54.7267 -7.7454 241° Southwest 394 453 36,000  Level FlightAware ADS-B
Tue 11:43:01 PM 54.6893 -7.8608 241° Southwest 392 451 36,000  Level FlightAware ADS-B
Tue 11:43:35 PM 54.6584 -7.9554 241° Southwest 390 449 36,000  Level FlightAware UK
Tue 11:43:35 PM 54.6914 -7.8544 241° Southwest 391 450 36,000  Level FlightAware ADS-B (EGAA / BFS)
Tue 11:44:11 PM 54.6268 -8.0521 241° Southwest 390 449 36,000  Level FlightAware UK
Tue 11:44:23 PM 54.6163 -8.0843 240° Southwest 391 450 36,000  Level FlightAware ADS-B
Tue 11:45:03 PM 54.5809 -8.1922 240° Southwest 391 450 36,000  Level FlightAware ADS-B
Tue 11:45:11 PM 54.5747 -8.2108 240° Southwest 391 450 36,000  Level FlightAware ADS-B (EGAA / BFS)
Tue 11:45:41 PM 54.5471 -8.2951 240° Southwest 392 451 36,000  Level FlightAware UK
Tue 11:45:43 PM 54.5460 -8.2978 240° Southwest 392 451 36,000  Level FlightAware ADS-B
Tue 11:46:31 PM 54.5040 -8.4243 240° Southwest 394 453 36,000  Level FlightAware ADS-B
Tue 11:47:11 PM 54.4660 -8.5389 240° Southwest 394 453 36,000  Level FlightAware UK
Tue 11:47:19 PM 54.4600 -8.5564 240° Southwest 394 453 36,000  Level FlightAware ADS-B
Tue 11:48:00 PM 54.4212 -8.6721 240° Southwest 394 453 36,000  Level FlightAware ADS-B
Tue 11:48:39 PM 54.3860 -8.7768 240° Southwest 394 453 36,000  Level FlightAware ADS-B (KHQM)
Tue 11:49:16 PM 54.3517 -8.8785 240° Southwest 394 453 36,000  Level FlightAware UK
Tue 11:49:24 PM 54.3469 -8.8924 240° Southwest 394 453 36,000  Level FlightAware ADS-B
Tue 11:50:01 PM 54.3118 -8.9957 240° Southwest 395 455 36,000  Level FlightAware ADS-B (EGAA / BFS)
Tue 11:50:31 PM 54.2849 -9.0745 239° Southwest 395 455 36,000  Level FlightAware ADS-B (KHQM)
Tue 11:51:06 PM 54.2466 -9.1672 234° Southwest 393 452 36,000  Level FlightAware ADS-B (EGAA / BFS)
Tue 11:51:40 PM 54.2114 -9.2514 234° Southwest 393 452 36,000  Level FlightAware ADS-B (EGAA / BFS)
Tue 11:52:10 PM 54.1797 -9.3268 234° Southwest 392 451 36,000  Level FlightAware ADS-B (EGAA / BFS)
Tue 11:52:40 PM 54.1513 -9.3941 234° Southwest 392 451 36,000  Level FlightAware ADS-B (KHQM)
Tue 11:53:12 PM 54.1136 -9.4831 234° Southwest 393 452 36,000  Level FlightAware ADS-B (EGAA / BFS)
Tue 11:53:43 PM 54.0856 -9.5491 234° Southwest 393 452 36,000  Level FlightAware ADS-B (EGAA / BFS)
Tue 11:54:13 PM 54.0495 -9.6340 234° Southwest 391 450 36,000  Level FlightAware ADS-B (EGAA / BFS)
Tue 11:54:43 PM 54.0178 -9.7081 234° Southwest 391 450 36,000  Level FlightAware ADS-B (KHQM)
Tue 11:56:10 PM 53.9607 -9.8414 234° Southwest 390 449 36,000  Level FlightAware ADS-B (KHQM)
Tue 11:56:52 PM 53.8813 -10.0254 234° Southwest 391 450 36,000  Level FlightAware ADS-B (KHQM)
Tue 11:57:23 PM 53.8488 -10.1006 234° Southwest 391 450 36,000  Level FlightAware ADS-B (KHQM)
Tue 11:58:00 PM 53.8079 -10.1946 234° Southwest 393 452 36,000  Level FlightAware ADS-B (KHQM)
Tue 11:58:41 PM 53.7640 -10.2950 234° Southwest 394 453 36,000  Level FlightAware ADS-B (KHQM)
Tue 11:59:11 PM 53.7315 -10.3691 234° Southwest 393 452 36,000  Level FlightAware ADS-B (KHQM)
Tue 11:59:42 PM 53.6984 -10.4445 234° Southwest 393 452 36,000  Level FlightAware ADS-B (KHQM)
Wed 12:00:22 AM 53.6553 -10.5422 233° Southwest 392 451 36,000  Level FlightAware ADS-B (KHQM)
Wed 12:00:52 AM 53.6230 -10.6151 233° Southwest 392 451 36,000  Level FlightAware ADS-B (KHQM)
Wed 12:01:32 AM 53.5798 -10.7124 233° Southwest 391 450 36,000  Level FlightAware ADS-B (KHQM)
Wed 12:02:02 AM 53.5473 -10.7854 233° Southwest 391 450 36,000  Level FlightAware ADS-B (KHQM)
Wed 12:02:32 AM 53.5150 -10.8576 233° Southwest 390 449 36,000  Level FlightAware ADS-B (KHQM)
Wed 12:03:02 AM 53.4827 -10.9297 233° Southwest 390 449 36,000  Level FlightAware ADS-B (KHQM)
Wed 12:03:42 AM 53.4403 -11.0240 233° Southwest 388 447 36,000  Level FlightAware ADS-B (KHQM)
Wed 12:04:12 AM 53.4064 -11.0992 233° Southwest 388 447 36,000  Level FlightAware ADS-B (KHQM)
Wed 12:04:51 AM 53.3651 -11.1905 233° Southwest 389 448 36,000  Level FlightAware ADS-B (KHQM)
Wed 12:05:22 AM 53.3313 -11.2649 233° Southwest 390 449 36,000  Level FlightAware ADS-B (KHQM)
Wed 12:05:52 AM 53.2996 -11.3344 233° Southwest 390 449 36,000  Level FlightAware ADS-B (KHQM)
Wed 12:06:31 AM 53.2547 -11.4327 233° Southwest 391 450 36,000  Level FlightAware ADS-B (KHQM)
Wed 12:07:02 AM 53.2240 -11.4995 233° Southwest 391 450 36,000 -231 Level FlightAware ADS-B (KHQM)
Wed 12:07:49 AM 53.1705 -11.6159 233° Southwest 391 450 35,700 -488 Descending FlightAware ADS-B (KHQM)
Wed 12:08:28 AM 53.1267 -11.7108 233° Southwest 392 451 35,300 -600 Descending FlightAware ADS-B (KHQM)
Wed 12:08:59 AM 53.0939 -11.7816 232° Southwest 394 453 35,000 -592 Descending FlightAware ADS-B (KHQM)
Wed 12:09:39 AM 53.0484 -11.8792 232° Southwest 396 456 34,600 -640 Descending FlightAware ADS-B (KHQM)
Wed 12:10:14 AM 53.0102 -11.9611 232° Southwest 398 458 34,200 -646 Descending FlightAware ADS-B (KHQM)
Wed 12:10:44 AM 52.9775 -12.0308 232° Southwest 397 457 33,900 -538 Descending FlightAware ADS-B (KHQM)
Wed 12:11:32 AM 52.9205 -12.1520 232° Southwest 398 458 33,500 -545 Descending FlightAware ADS-B (KHQM)
Wed 12:12:34 AM 52.8503 -12.3005 232° Southwest 405 466 32,900 -34 Descending FlightAware ADS-B (KHQM)
Wed 12:56:00 AM 51.0000 -20.0000 249° West 476 548 32,000 -18 Descending ETMS Enhanced Traffic Management System
Wed 12:57:00 AM 51.1851 -20.0104 248° West  Level Estimated
Wed 12:58:00 AM 51.1420 -20.1771 248° West  Level Estimated
Wed 12:59:00 AM 51.0987 -20.3435 248° West  Level Estimated
Wed 01:00:00 AM 51.0550 -20.5096 247° West  Level Estimated
Wed 01:01:00 AM 51.0112 -20.6754 247° West  Level Estimated
Wed 01:02:00 AM 50.7105 -21.1712 248° West 476 548 32,000  Level FlightAware Transoceanic
Wed 01:03:00 AM 50.6611 -21.3650 248° West 476 548 32,000  Level FlightAware Transoceanic
Wed 01:04:00 AM 50.6114 -21.5584 248° West 476 548 32,000  Level FlightAware Transoceanic
Wed 01:05:00 AM 50.5614 -21.7513 248° West 476 548 32,000  Level FlightAware Transoceanic
Wed 01:06:00 AM 50.5110 -21.9439 248° West 476 548 32,000  Level FlightAware Transoceanic
Wed 01:07:00 AM 50.4604 -22.1360 247° West 476 548 32,000  Level FlightAware Transoceanic
Wed 01:08:00 AM 50.4094 -22.3278 247° West 476 548 32,000  Level FlightAware Transoceanic
Wed 01:09:00 AM 50.3581 -22.5191 247° West 476 548 32,000  Level FlightAware Transoceanic
Wed 01:10:00 AM 50.3065 -22.7100 247° West 476 548 32,000  Level FlightAware Transoceanic
Wed 01:11:00 AM 50.2546 -22.9005 247° West 476 548 32,000  Level FlightAware Transoceanic
Wed 01:12:00 AM 50.2024 -23.0905 247° West 476 548 32,000  Level FlightAware Transoceanic
Wed 01:13:00 AM 50.1498 -23.2802 247° West 476 548 32,000  Level FlightAware Transoceanic
Wed 01:14:00 AM 50.0970 -23.4694 246° West 476 548 32,000  Level FlightAware Transoceanic
Wed 01:15:00 AM 50.0438 -23.6583 246° West 476 548 32,000  Level FlightAware Transoceanic
Wed 01:16:00 AM 49.9904 -23.8467 246° West 476 548 32,000  Level FlightAware Transoceanic
Wed 01:17:00 AM 49.9366 -24.0346 246° West 476 548 32,000  Level FlightAware Transoceanic
Wed 01:18:00 AM 49.8826 -24.2222 246° West 476 548 32,000  Level FlightAware Transoceanic
Wed 01:19:00 AM 49.8282 -24.4093 246° West 476 548 32,000  Level FlightAware Transoceanic
Wed 01:20:00 AM 49.7735 -24.5961 246° West 476 548 32,000  Level FlightAware Transoceanic
Wed 01:21:00 AM 49.7186 -24.7824 245° Southwest 476 548 32,000  Level FlightAware Transoceanic
Wed 01:22:00 AM 49.6633 -24.9682 245° Southwest 476 548 32,000  Level FlightAware Transoceanic
Wed 01:23:00 AM 49.6077 -25.1537 245° Southwest 476 548 32,000  Level FlightAware Transoceanic
Wed 01:24:00 AM 49.5519 -25.3387 245° Southwest 476 548 32,000  Level FlightAware Transoceanic
Wed 01:25:00 AM 49.4957 -25.5233 245° Southwest 476 548 32,000  Level FlightAware Transoceanic
Wed 01:26:00 AM 49.4393 -25.7075 245° Southwest 476 548 32,000  Level FlightAware Transoceanic
Wed 01:27:00 AM 49.3826 -25.8913 245° Southwest 476 548 32,000  Level FlightAware Transoceanic
Wed 01:28:00 AM 49.3255 -26.0746 244° Southwest 476 548 32,000  Level FlightAware Transoceanic
Wed 01:29:00 AM 49.2682 -26.2575 244° Southwest 476 548 32,000  Level FlightAware Transoceanic
Wed 01:30:00 AM 49.2106 -26.4400 244° Southwest 476 548 32,000  Level FlightAware Transoceanic
Wed 01:31:00 AM 49.1527 -26.6220 244° Southwest 476 548 32,000  Level FlightAware Transoceanic
Wed 01:32:00 AM 49.0946 -26.8037 244° Southwest 476 548 32,000  Level FlightAware Transoceanic
Wed 01:33:00 AM 49.0361 -26.9849 244° Southwest 476 548 32,000  Level FlightAware Transoceanic
Wed 01:34:00 AM 48.9773 -27.1656 244° Southwest 476 548 32,000  Level FlightAware Transoceanic
Wed 01:35:00 AM 48.9183 -27.3460 243° Southwest 476 548 32,000  Level FlightAware Transoceanic
Wed 01:36:00 AM 48.8590 -27.5259 243° Southwest 476 548 32,000  Level FlightAware Transoceanic
Wed 01:37:00 AM 48.7994 -27.7054 243° Southwest 476 548 32,000  Level FlightAware Transoceanic
Wed 01:38:00 AM 48.7396 -27.8845 243° Southwest 476 548 32,000  Level FlightAware Transoceanic
Wed 01:39:00 AM 48.6794 -28.0631 243° Southwest 476 548 32,000  Level FlightAware Transoceanic
Wed 01:40:00 AM 48.6190 -28.2413 243° Southwest 476 548 32,000  Level FlightAware Transoceanic
Wed 01:41:00 AM 48.5583 -28.4191 243° Southwest 476 548 32,000  Level FlightAware Transoceanic
Wed 01:42:00 AM 48.4974 -28.5965 243° Southwest 476 548 32,000  Level FlightAware Transoceanic
Wed 01:43:00 AM 48.4361 -28.7734 242° Southwest 476 548 32,000  Level FlightAware Transoceanic
Wed 01:44:00 AM 48.3746 -28.9499 242° Southwest 476 548 32,000  Level FlightAware Transoceanic
Wed 01:45:00 AM 48.3129 -29.1260 242° Southwest 476 548 32,000  Level FlightAware Transoceanic
Wed 01:46:00 AM 48.2508 -29.3016 242° Southwest 476 548 32,000  Level FlightAware Transoceanic
Wed 01:47:00 AM 48.1885 -29.4769 242° Southwest 476 548 32,000  Level FlightAware Transoceanic
Wed 01:48:00 AM 48.1259 -29.6517 242° Southwest 476 548 32,000  Level FlightAware Transoceanic
Wed 01:49:00 AM 48.0631 -29.8260 242° Southwest 476 548 32,000  Level FlightAware Transoceanic
Wed 01:50:00 AM 47.9525 -29.9328 213° Southwest  Level FlightAware Approximate
Wed 01:51:00 AM 47.8419 -30.0391 213° Southwest  Level FlightAware Approximate
Wed 01:52:00 AM 47.8559 -30.1013 241° Southwest  Level FlightAware Approximate
Wed 01:53:00 AM 47.7915 -30.2723 241° Southwest  Level FlightAware Approximate
Wed 01:54:00 AM 47.7269 -30.4429 241° Southwest  Level FlightAware Approximate
Wed 01:55:00 AM 47.6621 -30.6131 241° Southwest  Level FlightAware Approximate
Wed 01:56:00 AM 47.5970 -30.7828 240° Southwest  Level FlightAware Approximate
Wed 01:57:00 AM 47.5316 -30.9522 240° Southwest  Level FlightAware Approximate
Wed 01:58:00 AM 47.4660 -31.1211 240° Southwest  Level FlightAware Approximate
Wed 01:59:00 AM 47.4002 -31.2896 240° Southwest  Level FlightAware Approximate
Wed 02:00:00 AM 47.3341 -31.4576 240° Southwest  Level FlightAware Approximate
Wed 02:01:00 AM 47.2677 -31.6253 240° Southwest  Level FlightAware Approximate
Wed 02:02:00 AM 47.2012 -31.7925 240° Southwest  Level FlightAware Approximate
Wed 02:03:00 AM 47.1343 -31.9593 240° Southwest  Level FlightAware Approximate
Wed 02:04:00 AM 47.0673 -32.1257 239° Southwest  Level FlightAware Approximate
Wed 02:05:00 AM 47.0000 -32.2916 239° Southwest  Level FlightAware Approximate
Wed 02:06:00 AM 46.9324 -32.4572 239° Southwest  Level FlightAware Approximate
Wed 02:07:00 AM 46.8646 -32.6223 239° Southwest  Level FlightAware Approximate
Wed 02:08:00 AM 46.7966 -32.7870 239° Southwest  Level FlightAware Approximate
Wed 02:09:00 AM 46.7284 -32.9513 239° Southwest  Level FlightAware Approximate
Wed 02:10:00 AM 46.6599 -33.1152 239° Southwest  Level FlightAware Approximate
Wed 02:11:00 AM 46.5911 -33.2786 239° Southwest  Level FlightAware Approximate
Wed 02:12:00 AM 46.5222 -33.4417 238° Southwest  Level FlightAware Approximate
Wed 02:13:00 AM 46.4530 -33.6043 238° Southwest  Level FlightAware Approximate
Wed 02:14:00 AM 46.3836 -33.7665 238° Southwest  Level FlightAware Approximate
Wed 02:15:00 AM 46.3139 -33.9283 238° Southwest  Level FlightAware Approximate
Wed 02:16:00 AM 46.2441 -34.0897 238° Southwest  Level FlightAware Approximate
Wed 02:17:00 AM 46.1740 -34.2507 238° Southwest  Level FlightAware Approximate
Wed 02:18:00 AM 46.1036 -34.4113 238° Southwest  Level FlightAware Approximate
Wed 02:19:00 AM 46.0331 -34.5714 238° Southwest  Level FlightAware Approximate
Wed 02:20:00 AM 45.9623 -34.7312 238° Southwest  Level FlightAware Approximate
Wed 02:21:00 AM 45.8913 -34.8905 237° Southwest  Level FlightAware Approximate
Wed 02:22:00 AM 45.8201 -35.0495 237° Southwest  Level FlightAware Approximate
Wed 02:23:00 AM 45.7487 -35.2080 237° Southwest  Level FlightAware Approximate
Wed 02:24:00 AM 45.6770 -35.3661 237° Southwest  Level FlightAware Approximate
Wed 02:25:00 AM 45.6052 -35.5239 237° Southwest  Level FlightAware Approximate
Wed 02:26:00 AM 45.5331 -35.6812 237° Southwest  Level FlightAware Approximate
Wed 02:27:00 AM 45.4608 -35.8381 237° Southwest  Level FlightAware Approximate
Wed 02:28:00 AM 45.3882 -35.9946 237° Southwest  Level FlightAware Approximate
Wed 02:29:00 AM 45.3155 -36.1507 237° Southwest  Level FlightAware Approximate
Wed 02:30:00 AM 45.2426 -36.3064 236° Southwest  Level FlightAware Approximate
Wed 02:31:00 AM 45.1694 -36.4617 236° Southwest  Level FlightAware Approximate
Wed 02:32:00 AM 45.0961 -36.6166 236° Southwest  Level FlightAware Approximate
Wed 02:33:00 AM 45.0225 -36.7711 236° Southwest  Level FlightAware Approximate
Wed 02:34:00 AM 44.9487 -36.9253 236° Southwest  Level FlightAware Approximate
Wed 02:35:00 AM 44.8748 -37.0790 236° Southwest  Level FlightAware Approximate
Wed 02:36:00 AM 44.8006 -37.2324 236° Southwest  Level FlightAware Approximate
Wed 02:37:00 AM 44.7262 -37.3853 236° Southwest  Level FlightAware Approximate
Wed 02:38:00 AM 44.6517 -37.5379 236° Southwest  Level FlightAware Approximate
Wed 02:39:00 AM 44.5769 -37.6901 235° Southwest  Level FlightAware Approximate
Wed 02:40:00 AM 44.5019 -37.8418 235° Southwest  Level FlightAware Approximate
Wed 02:41:00 AM 44.4267 -37.9932 235° Southwest  Level FlightAware Approximate
Wed 02:42:00 AM 44.3513 -38.1442 235° Southwest  Level FlightAware Approximate
Wed 02:43:00 AM 44.2758 -38.2948 235° Southwest  Level FlightAware Approximate
Wed 02:44:00 AM 44.2000 -38.4451 235° Southwest  Level FlightAware Approximate
Wed 02:45:00 AM 44.1240 -38.5949 235° Southwest  Level FlightAware Approximate
Wed 02:46:00 AM 44.0479 -38.7443 235° Southwest  Level FlightAware Approximate
Wed 02:47:00 AM 43.9715 -38.8934 235° Southwest  Level FlightAware Approximate
Wed 02:47:11 AM 44.0000 -40.0000 235° Southwest 498 573 32,000  Level New York Oceanic (ODAPS)
Wed 02:50:34 AM 43.7000 -40.5833 234° Southwest 497 572 32,000  Level New York Oceanic (ODAPS)
Wed 03:00:11 AM 42.8833 -42.1167 233° Southwest 490 564 32,000  Level New York Oceanic (ODAPS)
Wed 03:09:46 AM 42.0833 -43.5667 232° Southwest 487 560 32,000  Level New York Oceanic (ODAPS)
Wed 03:19:22 AM 41.2667 -44.9667 232° Southwest 488 562 32,000  Level New York Oceanic (ODAPS)
Wed 03:28:58 AM 40.4333 -46.3333 231° Southwest 494 568 32,000  Level New York Oceanic (ODAPS)
Wed 03:38:35 AM 39.5833 -47.6667 230° Southwest 499 574 32,000  Level New York Oceanic (ODAPS)
Wed 03:48:11 AM 38.7167 -48.9667 229° Southwest 496 571 32,000  Level New York Oceanic (ODAPS)
Wed 03:56:11 AM 38.0000 -50.0000 221° Southwest 486 559 32,000  Level New York Oceanic (ODAPS)
Wed 03:57:46 AM 37.8167 -50.2000 221° Southwest 486 559 32,000  Level New York Oceanic (ODAPS)
Wed 04:07:22 AM 36.8167 -51.2667 220° Southwest 482 555 32,000  Level New York Oceanic (ODAPS)
Wed 04:16:59 AM 35.8167 -52.2833 219° Southwest 475 547 32,000  Level New York Oceanic (ODAPS)
Wed 04:26:34 AM 34.8333 -53.2667 219° Southwest 472 543 32,000  Level New York Oceanic (ODAPS)
Wed 04:36:10 AM 33.8333 -54.2167 218° Southwest 472 543 32,000  Level New York Oceanic (ODAPS)
Wed 04:44:17 AM 33.0000 -55.0000 222° Southwest 481 554 32,000  Level New York Oceanic (ODAPS)
Wed 04:45:46 AM 32.8500 -55.1667 222° Southwest 478 550 32,000  Level New York Oceanic (ODAPS)
Wed 04:55:23 AM 31.9167 -56.1500 221° Southwest 482 555 32,000  Level New York Oceanic (ODAPS)
Wed 05:04:58 AM 30.9500 -57.1333 221° Southwest 483 556 32,000  Level New York Oceanic (ODAPS)
Wed 05:14:34 AM 29.9833 -58.1000 220° Southwest 476 548 32,000  Level New York Oceanic (ODAPS)
Wed 05:24:10 AM 29.0333 -59.0333 220° Southwest 475 547 32,000  Level New York Oceanic (ODAPS)
Wed 05:33:48 AM 28.0500 -59.9500 221° Southwest 448 516 32,000  Level New York Oceanic (ODAPS)
Wed 05:34:00 AM 28.0000 -60.0000 221° Southwest 475 547 32,000  Level FlightAware Transoceanic
Wed 05:34:29 AM 28.0000 -60.0000 221° Southwest 480 552 32,000  Level New York Oceanic (ODAPS)
Wed 05:43:22 AM 27.1167 -60.8833 221° Southwest 455 524 32,000  Level New York Oceanic (ODAPS)
Wed 05:52:59 AM 26.1667 -61.8000 220° Southwest 456 525 32,000  Level New York Oceanic (ODAPS)
Wed 06:02:34 AM 25.2167 -62.6833 220° Southwest 457 526 32,000  Level New York Oceanic (ODAPS)
Wed 06:12:10 AM 24.2667 -63.5667 220° Southwest 461 531 32,000  Level New York Oceanic (ODAPS)
Wed 06:21:47 AM 23.3000 -64.4333 220° Southwest 461 531 32,000  Level New York Oceanic (ODAPS)
Wed 06:31:22 AM 22.3500 -65.2833 219° Southwest 459 528 32,000  Level New York Oceanic (ODAPS)
Wed 06:32:02 AM 22.2667 -65.3333 219° Southwest 490 564 32,000  Level San Juan Center
Wed 06:33:00 AM 22.1815 -65.4263 219° Southwest 461 531 32,000  Level FlightAware Transoceanic
Wed 06:33:02 AM 22.1667 -65.4167 218° Southwest 460 529 32,000  Level San Juan Center
Wed 06:34:00 AM 22.0795 -65.5158 219° Southwest 461 531 32,000  Level FlightAware Transoceanic
Wed 06:34:02 AM 22.0667 -65.5000 218° Southwest 460 529 32,000  Level San Juan Center
Wed 06:35:00 AM 21.9775 -65.6052 219° Southwest 461 531 32,000  Level FlightAware Transoceanic
Wed 06:35:13 AM 21.9500 -65.6167 223° Southwest 470 541 32,000  Level San Juan Center
Wed 06:36:00 AM 21.8755 -65.6944 219° Southwest 461 531 32,000  Level FlightAware Transoceanic
Wed 06:36:13 AM 21.8500 -65.7000 218° Southwest 460 529 32,000  Level San Juan Center
Wed 06:37:00 AM 21.7615 -65.7955 219° Southwest 459 528 32,000  Level FlightAware Transoceanic
Wed 06:37:14 AM 21.7500 -65.7833 218° Southwest 460 529 32,000  Level San Juan Center
Wed 06:38:14 AM 21.6500 -65.8833 223° Southwest 470 541 32,000  Level San Juan Center
Wed 06:39:14 AM 21.5500 -65.9667 218° Southwest 450 518 32,000  Level San Juan Center
Wed 06:40:15 AM 21.4500 -66.0500 218° Southwest 460 529 32,000  Level San Juan Center
Wed 06:41:15 AM 21.3667 -66.1500 228° Southwest 440 506 32,000  Level San Juan Center
Wed 06:42:15 AM 21.2833 -66.2500 228° Southwest 450 518 32,000  Level San Juan Center
Wed 06:43:16 AM 21.2000 -66.3500 228° Southwest 450 518 32,000  Level San Juan Center
Wed 06:44:15 AM 21.1167 -66.4500 228° Southwest 460 529 32,000  Level San Juan Center
Wed 06:45:16 AM 21.0333 -66.5500 228° Southwest 450 518 32,000  Level San Juan Center
Wed 06:46:16 AM 20.9667 -66.6500 234° Southwest 450 518 32,000  Level San Juan Center
Wed 06:47:16 AM 20.8833 -66.7500 228° Southwest 460 529 32,000  Level San Juan Center
Wed 06:48:17 AM 20.8000 -66.8500 228° Southwest 450 518 32,000  Level San Juan Center
Wed 06:49:17 AM 20.7167 -66.9500 228° Southwest 440 506 32,000  Level San Juan Center
Wed 06:50:17 AM 20.6333 -67.0500 228° Southwest 450 518 32,000  Level San Juan Center
Wed 06:51:18 AM 20.5500 -67.1500 228° Southwest 450 518 32,000  Level San Juan Center
Wed 06:52:18 AM 20.4667 -67.2500 228° Southwest 450 518 32,000  Level San Juan Center
Wed 06:53:18 AM 20.3833 -67.3500 228° Southwest 450 518 32,000  Level San Juan Center
Wed 06:54:19 AM 20.3000 -67.4500 228° Southwest 440 506 32,000 -198 Level San Juan Center
Wed 06:55:19 AM 20.2167 -67.5500 228° Southwest 440 506 31,600 -700 Descending San Juan Center
Wed 06:56:19 AM 20.1333 -67.6333 223° Southwest 440 506 30,600 -992 Descending San Juan Center
Wed 06:57:20 AM 20.0500 -67.7333 228° Southwest 440 506 29,600 -1,289 Descending San Juan Center
Wed 06:58:20 AM 19.9833 -67.8333 235° Southwest 430 495 28,000 -1,800 Descending San Juan Center
Wed 06:59:20 AM 19.8833 -67.9500 228° Southwest 420 483 26,000 -1,785 Descending San Juan Center
Wed 07:00:21 AM 19.8000 -68.0333 223° Southwest 420 483 24,400 -1,736 Descending San Juan Center
Wed 07:01:21 AM 19.7333 -68.1333 235° Southwest 410 472 22,500 -1,850 Descending San Juan Center
Wed 07:02:21 AM 19.6500 -68.2167 223° Southwest 410 472 20,700 -1,736 Descending San Juan Center
Wed 07:03:22 AM 19.5833 -68.3000 230° Southwest 400 460 19,000 -1,636 Descending San Juan Center
Wed 07:04:22 AM 19.5167 -68.3833 230° Southwest 390 449 17,400 -1,600 Descending San Juan Center
Wed 07:06:00 AM 19.3696 -68.5451 226° Southwest  Level FlightAware Approximate
Wed 07:13:00 AM 18.5667 -68.3333 155° Southeast  Level FlightAware Approximate
Wed 07:14:00 AM 18.5674 -68.3634 155° Southeast  Level Estimated
Wed 07:15:00 AM 18.5674 -68.3634 155° Southeast  Level Estimated
Wed 07:16:00 AM 18.5674 -68.3634 155° Southeast  Level Estimated
Wed 07:17:00 AM 18.5674 -68.3634 155° Southeast  Level Estimated
Wed 07:18:00 AM 18.5674 -68.3634 155° Southeast  Level Estimated
Wed 07:19:00 AM 18.5674 -68.3634 155° Southeast  Level Estimated
Wed 07:20:00 AM 18.5674 -68.3634 155° Southeast  Level Estimated
Wed 07:21:00 AM 18.5674 -68.3634 155° Southeast  Level Estimated
Wed 07:22:00 AM 18.5674 -68.3634 155° Southeast  Level Estimated
Wed 07:23:00 AM 18.5674 -68.3634 155° Southeast  Level Estimated
Wed 07:24:00 AM 18.5674 -68.3634 155° Southeast  Level Estimated
Wed 07:25:00 AM 18.5674 -68.3634 155° Southeast  Level Estimated
Wed 07:26:00 AM 18.5674 -68.3634 155° Southeast  Level Estimated
Wed 07:27:00 AM 18.5674 -68.3634 155° Southeast  Level Estimated
Wed 07:28:00 AM 18.5674 -68.3634 155° Southeast  Level Estimated
Wed 07:29:00 AM 18.5674 -68.3634 155° Southeast  Level Estimated

Login

Don't have an account? Register now (free) for customized features, flight alerts, and more!